.
WxDataArchive / Data Records for 2010-11-24
2010-11-23 November 2010 2010-11-25

Data Records for Wednesday, 24 November 2010

Time	Temp	Chill	HIndex	Humid	Dewpt	 Wind 	HiWind	WindDir	Rain 	Barom 
-----	----	-----	------	-----	-----	------	------	-------	-----	----- 
00:00	23.2	23.2	23.2	86	19.6	0	0	---	0.00	30.348 
00:05	23.2	23.2	23.2	86	19.6	0	0	---	0.00	30.348 
00:10	23.0	23.0	23.0	86	19.4	0	0	---	0.00	30.348 
00:15	23.0	23.0	23.0	86	19.4	0	0	---	0.00	30.346 
00:20	22.9	22.9	22.9	86	19.4	0	0	---	0.00	30.346 
00:25	22.9	22.9	22.9	87	19.6	0	0	---	0.00	30.346 
00:30	22.9	22.9	22.9	87	19.6	0	0	---	0.00	30.351 
00:35	22.9	22.9	22.9	87	19.6	0	0	---	0.00	30.351 
00:40	22.9	22.9	22.9	87	19.6	0	0	---	0.00	30.351 
00:45	22.7	22.7	22.7	87	19.4	0	0	---	0.00	30.354 
00:50	22.7	22.7	22.7	87	19.4	0	0	---	0.00	30.354 
00:55	22.5	22.5	22.5	87	19.2	0	0	---	0.00	30.354 
01:00	22.5	22.5	22.5	87	19.2	0	0	---	0.00	30.348 
01:05	22.4	22.4	22.4	87	19.1	0	0	---	0.00	30.348 
01:10	22.2	22.2	22.2	88	19.2	0	0	---	0.00	30.348 
01:15	22.2	22.2	22.2	88	19.2	0	0	---	0.00	30.351 
01:20	22.2	22.2	22.2	88	19.2	0	0	---	0.00	30.351 
01:25	22.1	22.1	22.1	88	19.1	0	0	---	0.00	30.351 
01:30	22.1	22.1	22.1	88	19.1	0	0	---	0.00	30.343 
01:35	21.9	21.9	21.9	88	18.9	0	0	---	0.00	30.343 
01:40	21.9	21.9	21.9	88	18.9	0	0	---	0.00	30.343 
01:45	22.1	22.1	22.1	88	19.1	0	0	---	0.00	30.346 
01:50	22.1	22.1	22.1	88	19.1	0	0	---	0.00	30.346 
01:55	22.1	22.1	22.1	88	19.1	0	0	---	0.00	30.346 
02:00	22.2	22.2	22.2	89	19.5	0	0	---	0.00	30.338 
02:05	22.5	22.5	22.5	89	19.8	0	0	---	0.00	30.338 
02:10	22.7	22.7	22.7	89	20.0	0	0	---	0.00	30.338 
02:15	22.7	22.7	22.7	89	20.0	0	0	---	0.00	30.342 
02:20	22.9	22.9	22.9	90	20.4	0	0	---	0.00	30.342 
02:25	22.7	22.7	22.7	89	20.0	0	0	---	0.00	30.342 
02:30	22.7	22.7	22.7	89	20.0	0	0	---	0.00	30.350 
02:35	22.4	22.4	22.4	89	19.7	0	0	---	0.00	30.350 
02:40	22.2	22.2	22.2	89	19.5	0	0	---	0.00	30.350 
02:45	22.1	22.1	22.1	89	19.4	0	0	---	0.00	30.351 
02:50	21.9	21.9	21.9	89	19.2	0	0	---	0.00	30.351 
02:55	21.6	21.6	21.6	89	18.9	0	0	---	0.00	30.351 
03:00	21.4	21.4	21.4	89	18.7	0	0	---	0.00	30.359 
03:05	21.3	21.3	21.3	89	18.6	0	0	---	0.00	30.359 
03:10	21.3	21.3	21.3	89	18.6	0	0	---	0.00	30.359 
03:15	21.1	21.1	21.1	89	18.4	0	0	---	0.00	30.371 
03:20	21.1	21.1	21.1	89	18.4	0	0	---	0.00	30.371 
03:25	21.1	21.1	21.1	89	18.4	0	0	---	0.00	30.371 
03:30	21.1	21.1	21.1	89	18.4	0	0	---	0.00	30.376 
03:35	21.0	21.0	21.0	89	18.3	0	0	---	0.00	30.376 
03:40	20.8	20.8	20.8	89	18.1	0	0	---	0.00	30.376 
03:45	20.8	20.8	20.8	89	18.1	0	0	---	0.00	30.372 
03:50	20.6	20.6	20.6	89	17.9	0	0	---	0.00	30.372 
03:55	20.6	20.6	20.6	90	18.1	0	0	---	0.00	30.372 
04:00	20.8	20.8	20.8	90	18.3	0	0	---	0.00	30.374 
04:05	20.8	20.8	20.8	90	18.3	0	0	---	0.00	30.374 
04:10	21.0	21.0	21.0	90	18.5	0	0	---	0.00	30.374 
04:15	21.0	21.0	21.0	90	18.5	0	0	---	0.00	30.367 
04:20	21.1	21.1	21.1	90	18.6	0	0	---	0.00	30.367 
04:25	21.3	21.3	21.3	90	18.8	0	0	---	0.00	30.367 
04:30	21.4	21.4	21.4	90	18.9	0	0	---	0.00	30.363 
04:35	21.4	21.4	21.4	90	18.9	0	0	---	0.00	30.363 
04:40	21.6	21.6	21.6	91	19.4	0	1	338	0.00	30.363 
04:45	22.4	22.4	22.4	92	20.4	0	3	90	0.00	30.362 
04:50	23.2	23.2	23.2	92	21.2	0	3	90	0.00	30.362 
04:55	23.9	23.9	23.9	91	21.7	1	4	90	0.00	30.362 
05:00	24.4	24.4	24.4	90	21.9	1	3	90	0.00	30.349 
05:05	24.7	24.7	24.7	89	21.9	1	3	90	0.00	30.349 
05:10	24.8	24.8	24.8	88	21.8	1	4	90	0.00	30.349 
05:15	25.0	25.0	25.0	88	22.0	1	4	90	0.00	30.360 
05:20	24.8	24.8	24.8	87	21.5	1	4	90	0.00	30.360 
05:25	25.0	25.0	25.0	86	21.4	1	4	90	0.00	30.360 
05:30	25.0	25.0	25.0	86	21.4	2	5	90	0.00	30.363 
05:35	25.0	25.0	25.0	85	21.1	2	5	90	0.00	30.363 
05:40	25.0	25.0	25.0	84	20.9	2	4	90	0.00	30.363 
05:45	24.8	24.8	24.8	84	20.7	2	5	90	0.00	30.363 
05:50	24.7	24.7	24.7	84	20.6	2	5	90	0.00	30.363 
05:55	24.7	24.7	24.7	84	20.6	2	4	90	0.00	30.363 
06:00	24.5	24.5	24.5	84	20.4	2	5	90	0.00	30.361 
06:05	24.5	24.5	24.5	84	20.4	2	4	90	0.00	30.361 
06:10	24.5	24.5	24.5	84	20.4	1	4	90	0.00	30.361 
06:15	24.7	24.7	24.7	84	20.6	2	4	90	0.00	30.350 
06:20	24.7	24.7	24.7	84	20.6	1	5	90	0.00	30.350 
06:25	24.7	24.7	24.7	84	20.6	2	4	90	0.00	30.350 
06:30	24.8	24.8	24.8	84	20.7	2	7	90	0.00	30.343 
06:35	25.0	25.0	25.0	84	20.9	2	4	90	0.00	30.343 
06:40	25.0	25.0	25.0	84	20.9	1	5	90	0.00	30.343 
06:45	25.3	25.3	25.3	84	21.2	2	5	90	0.00	30.353 
06:50	25.6	25.6	25.6	83	21.2	2	6	90	0.00	30.353 
06:55	25.7	25.7	25.7	82	21.0	2	7	90	0.00	30.353 
07:00	25.8	25.8	25.8	82	21.1	3	7	90	0.00	30.348 
07:05	26.0	26.0	26.0	81	21.0	2	6	90	0.00	30.348 
07:10	26.0	26.0	26.0	81	21.0	3	10	90	0.00	30.348 
07:15	26.1	26.1	26.1	81	21.1	3	5	90	0.00	30.352 
07:20	26.1	26.1	26.1	81	21.1	3	6	90	0.00	30.352 
07:25	26.1	26.1	26.1	80	20.8	3	6	90	0.00	30.352 
07:30	26.1	26.1	26.1	80	20.8	3	5	112	0.00	30.361 
07:35	26.3	26.3	26.3	80	21.0	3	7	90	0.00	30.361 
07:40	26.3	26.3	26.3	80	21.0	3	7	90	0.00	30.361 
07:45	26.3	26.3	26.3	80	21.0	3	9	90	0.00	30.363 
07:50	26.4	26.4	26.4	80	21.1	3	7	90	0.00	30.363 
07:55	26.4	26.4	26.4	80	21.1	2	9	90	0.00	30.363 
08:00	26.4	26.4	26.4	80	21.1	2	5	68	0.00	30.360 
08:05	26.4	26.4	26.4	80	21.1	3	6	90	0.00	30.360 
08:10	26.4	26.4	26.4	80	21.1	2	7	90	0.00	30.360 
08:15	26.4	26.4	26.4	80	21.1	3	6	90	0.00	30.362 
08:20	26.4	26.4	26.4	80	21.1	2	5	90	0.00	30.362 
08:25	26.6	26.6	26.6	80	21.3	3	7	90	0.00	30.362 
08:30	26.6	26.6	26.6	80	21.3	2	5	90	0.00	30.365 
08:35	26.7	26.7	26.7	80	21.4	2	6	90	0.00	30.365 
08:40	26.9	26.9	26.9	80	21.6	2	7	90	0.00	30.365 
08:45	27.0	27.0	27.0	80	21.7	2	6	90	0.00	30.348 
08:50	27.0	27.0	27.0	80	21.7	2	5	90	0.00	30.348 
08:55	27.2	27.2	27.2	80	21.9	2	5	90	0.00	30.348 
09:00	27.2	27.2	27.2	79	21.6	3	9	90	0.00	30.363 
09:05	27.3	27.3	27.3	79	21.7	2	5	90	0.00	30.363 
09:10	27.5	27.5	27.5	79	21.9	3	7	90	0.00	30.363 
09:15	27.6	27.6	27.6	79	22.0	3	5	90	0.00	30.367 
09:20	27.8	27.8	27.8	79	22.2	2	6	90	0.00	30.367 
09:25	27.8	27.8	27.8	79	22.2	2	5	112	0.00	30.367 
09:30	27.9	27.9	27.9	79	22.2	2	7	90	0.00	30.377 
09:35	27.9	27.9	27.9	79	22.2	2	9	90	0.00	30.377 
09:40	28.1	28.1	28.1	79	22.4	3	6	90	0.00	30.377 
09:45	28.1	23.6	28.1	79	22.4	4	8	90	0.00	30.353 
09:50	28.1	28.1	28.1	79	22.4	3	9	90	0.00	30.353 
09:55	28.2	28.2	28.2	80	22.8	3	6	90	0.00	30.353 
10:00	28.4	28.4	28.4	80	23.0	3	7	90	0.00	30.347 
10:05	28.4	23.9	28.4	80	23.0	4	9	90	0.00	30.347 
10:10	28.5	24.0	28.5	80	23.1	4	9	90	0.00	30.347 
10:15	28.7	24.3	28.7	80	23.3	4	10	90	0.00	30.331 
10:20	28.8	28.8	28.8	80	23.4	3	9	90	0.00	30.331 
10:25	29.0	24.6	29.0	80	23.6	4	11	90	0.00	30.331 
10:30	29.1	24.7	29.1	80	23.7	4	10	90	0.00	30.329 
10:35	29.3	25.0	29.3	80	23.9	4	9	90	0.00	30.329 
10:40	29.3	25.0	29.3	80	23.9	4	10	112	0.00	30.329 
10:45	29.4	25.1	29.4	80	24.0	4	11	112	0.00	30.323 
10:50	29.5	25.2	29.5	80	24.1	4	9	112	0.00	30.323 
10:55	29.7	24.4	29.7	80	24.3	5	11	90	0.00	30.323 
11:00	29.8	24.5	29.8	79	24.1	5	12	90	0.00	30.317 
11:05	30.0	30.0	30.0	80	24.6	3	12	112	0.00	30.317 
11:10	30.1	25.9	30.1	80	24.7	4	11	90	0.00	30.317 
11:15	30.3	25.1	30.3	79	24.6	5	9	90	0.00	30.310 
11:20	30.4	26.2	30.4	79	24.7	4	9	90	0.00	30.310 
11:25	30.6	30.6	30.6	79	24.9	3	7	90	0.00	30.310 
11:30	30.6	26.5	30.6	79	24.9	4	7	112	0.00	30.317 
11:35	30.9	26.8	30.9	79	25.2	4	10	90	0.00	30.317 
11:40	30.9	25.8	30.9	79	25.2	5	9	112	0.00	30.317 
11:45	31.0	31.0	31.0	79	25.3	3	8	112	0.00	30.316 
11:50	30.9	26.8	30.9	79	25.2	4	11	112	0.00	30.316 
11:55	31.0	26.9	31.0	79	25.3	4	7	90	0.00	30.316 
12:00	31.0	26.9	31.0	79	25.3	4	12	112	0.00	30.315 
12:05	31.0	26.9	31.0	79	25.3	4	10	90	0.00	30.315 
12:10	31.2	27.2	31.2	78	25.2	4	9	112	0.00	30.315 
12:15	31.3	27.3	31.3	78	25.3	4	10	112	0.00	30.314 
12:20	31.5	31.5	31.5	78	25.4	3	10	90	0.00	30.314 
12:25	31.6	31.6	31.6	78	25.5	3	8	112	0.00	30.314 
12:30	31.6	27.6	31.6	78	25.5	4	12	112	0.00	30.290 
12:35	31.6	31.6	31.6	78	25.5	3	10	90	0.00	30.290 
12:40	31.9	31.9	31.9	79	26.1	2	11	90	0.00	30.290 
12:45	32.1	32.1	32.1	79	26.3	2	5	90	0.00	30.289 
12:50	32.1	32.1	32.1	79	26.3	3	6	90	0.00	30.289 
12:55	32.2	32.2	32.2	79	26.4	2	6	112	0.00	30.289 
13:00	32.2	32.2	32.2	79	26.4	3	9	90	0.00	30.270 
13:05	32.4	32.4	32.4	79	26.6	3	6	90	0.00	30.270 
13:10	32.4	32.4	32.4	79	26.6	2	4	112	0.00	30.270 
13:15	32.5	32.5	32.5	79	26.7	3	8	112	0.00	30.269 
13:20	32.5	32.5	32.5	79	26.7	3	7	90	0.00	30.269 
13:25	32.5	28.7	32.5	79	26.7	4	10	90	0.00	30.269 
13:30	32.7	32.7	32.7	78	26.6	3	6	90	0.00	30.258 
13:35	32.9	29.1	32.9	77	26.5	4	7	90	0.00	30.258 
13:40	32.9	29.1	32.9	77	26.5	4	10	90	0.00	30.258 
13:45	33.1	29.3	33.1	76	26.4	4	10	112	0.00	30.250 
13:50	33.1	33.1	33.1	77	26.7	3	9	90	0.00	30.250 
13:55	33.2	33.2	33.2	77	26.8	3	10	112	0.00	30.250 
14:00	33.4	29.7	33.4	76	26.7	4	9	90	0.00	30.233 
14:05	33.4	29.7	33.4	76	26.7	4	9	90	0.00	30.233 
14:10	33.5	29.8	33.5	76	26.8	4	9	112	0.00	30.233 
14:15	33.5	33.5	33.5	75	26.4	3	7	90	0.00	30.236 
14:20	33.7	30.0	33.7	75	26.6	4	10	112	0.00	30.236 
14:25	33.7	29.1	33.7	75	26.6	5	11	90	0.00	30.236 
14:30	33.7	30.0	33.7	75	26.6	4	12	112	0.00	30.221 
14:35	33.7	30.0	33.7	75	26.6	4	9	112	0.00	30.221 
14:40	33.7	30.0	33.7	75	26.6	4	7	90	0.00	30.221 
14:45	33.7	30.0	33.7	76	27.0	4	8	90	0.00	30.216 
14:50	33.7	30.0	33.7	76	27.0	4	10	90	0.00	30.216 
14:55	33.5	28.8	33.5	75	26.4	5	10	112	0.00	30.216 
15:00	33.5	29.8	33.5	75	26.4	4	7	90	0.00	30.203 
15:05	33.7	33.7	33.7	76	27.0	3	12	112	0.00	30.203 
15:10	33.7	30.0	33.7	76	27.0	4	9	112	0.00	30.203 
15:15	33.7	30.0	33.7	77	27.3	4	10	90	0.00	30.204 
15:20	33.7	29.1	33.7	77	27.3	5	11	90	0.00	30.204 
15:25	33.5	28.0	33.5	78	27.4	6	10	112	0.00	30.204 
15:30	33.4	28.7	33.4	78	27.3	5	13	112	0.00	30.188 
15:35	33.2	28.5	33.2	80	27.7	5	11	112	0.00	30.188 
15:40	33.1	28.4	33.1	81	27.9	5	11	90	0.00	30.188 
15:45	32.9	28.1	32.9	82	28.0	5	11	112	0.00	30.181 
15:50	32.8	28.0	32.8	83	28.2	5	11	90	0.00	30.181 
15:55	32.8	29.0	32.8	83	28.2	4	10	90	0.00	30.181 
16:00	32.8	29.0	32.8	84	28.5	4	10	90	0.00	30.170 
16:05	32.7	27.9	32.7	84	28.4	5	11	90	0.01	30.170 
16:10	32.7	28.9	32.7	85	28.7	4	10	90	0.00	30.170 
16:15	32.7	27.1	32.7	85	28.7	6	13	90	0.00	30.156 
16:20	32.7	27.9	32.7	85	28.7	5	10	90	0.00	30.156 
16:25	32.7	27.9	32.7	85	28.7	5	11	90	0.00	30.156 
16:30	32.7	27.9	32.7	86	29.0	5	11	112	0.01	30.143 
16:35	32.7	28.9	32.7	86	29.0	4	7	112	0.00	30.143 
16:40	32.7	27.9	32.7	87	29.3	5	11	90	0.00	30.143 
16:45	32.7	27.9	32.7	87	29.3	5	11	90	0.01	30.124 
16:50	32.5	27.7	32.5	87	29.1	5	10	90	0.00	30.124 
16:55	32.5	26.8	32.5	88	29.3	6	12	90	0.00	30.124 
17:00	32.5	27.7	32.5	88	29.3	5	11	90	0.00	30.110 
17:05	32.5	26.8	32.5	88	29.3	6	14	90	0.01	30.110 
17:10	32.7	28.9	32.7	88	29.5	4	6	90	0.00	30.110 
17:15	32.5	26.8	32.5	88	29.3	6	11	112	0.00	30.101 
17:20	32.5	26.1	32.5	88	29.3	7	14	90	0.01	30.101 
17:25	32.5	26.8	32.5	89	29.6	6	12	112	0.00	30.101 
17:30	32.5	26.8	32.5	89	29.6	6	10	90	0.00	30.093 
17:35	32.5	26.8	32.5	89	29.6	6	10	112	0.01	30.093 
17:40	32.5	27.7	32.5	89	29.6	5	10	112	0.00	30.093 
17:45	32.5	28.7	32.5	89	29.6	4	9	90	0.01	30.095 
17:50	32.5	28.7	32.5	89	29.6	4	9	90	0.00	30.095 
17:55	32.5	28.7	32.5	90	29.9	4	10	90	0.01	30.095 
18:00	32.4	28.5	32.4	90	29.8	4	11	90	0.01	30.100 
18:05	32.4	32.4	32.4	90	29.8	1	5	112	0.00	30.100 
18:10	32.4	32.4	32.4	90	29.8	0	0	---	0.01	30.100 
18:15	32.4	32.4	32.4	90	29.8	0	0	---	0.00	30.101 
18:20	32.4	32.4	32.4	90	29.8	0	0	---	0.01	30.101 
18:25	32.4	32.4	32.4	90	29.8	0	0	---	0.01	30.101 
18:30	32.4	32.4	32.4	90	29.8	0	0	---	0.01	30.104 
18:35	32.4	32.4	32.4	90	29.8	0	0	---	0.01	30.104 
18:40	32.4	32.4	32.4	91	30.1	0	0	---	0.00	30.104 
18:45	32.4	32.4	32.4	91	30.1	0	0	---	0.01	30.089 
18:50	32.4	32.4	32.4	91	30.1	0	0	---	0.01	30.089 
18:55	32.4	32.4	32.4	91	30.1	0	0	---	0.01	30.089 
19:00	32.5	32.5	32.5	91	30.2	0	0	---	0.01	30.107 
19:05	32.5	32.5	32.5	91	30.2	0	0	---	0.00	30.107 
19:10	32.5	32.5	32.5	92	30.4	0	0	---	0.00	30.107 
19:15	32.5	32.5	32.5	92	30.4	0	0	---	0.01	30.100 
19:20	32.5	32.5	32.5	92	30.4	0	0	---	0.00	30.100 
19:25	32.5	32.5	32.5	92	30.4	0	0	---	0.00	30.100 
19:30	32.5	32.5	32.5	92	30.4	0	0	---	0.00	30.092 
19:35	32.5	32.5	32.5	92	30.4	0	0	---	0.00	30.092 
19:40	32.5	32.5	32.5	92	30.4	0	0	---	0.00	30.092 
19:45	32.5	32.5	32.5	92	30.4	0	0	---	0.00	30.074 
19:50	32.5	32.5	32.5	92	30.4	0	0	---	0.00	30.074 
19:55	32.5	32.5	32.5	92	30.4	0	0	---	0.00	30.074 
20:00	32.5	32.5	32.5	92	30.4	0	0	---	0.00	30.060 
20:05	32.5	32.5	32.5	92	30.4	0	0	---	0.00	30.060 
20:10	32.5	32.5	32.5	92	30.4	0	0	---	0.00	30.060 
20:15	32.5	32.5	32.5	92	30.4	0	0	---	0.00	30.042 
20:20	32.5	32.5	32.5	92	30.4	0	0	---	0.00	30.042 
20:25	32.5	32.5	32.5	92	30.4	0	0	---	0.00	30.042 
20:30	32.5	32.5	32.5	92	30.4	0	0	---	0.00	30.044 
20:35	32.7	32.7	32.7	92	30.6	0	0	---	0.00	30.044 
20:40	32.7	32.7	32.7	91	30.4	0	0	---	0.00	30.044 
20:45	32.7	32.7	32.7	91	30.4	0	0	---	0.00	30.058 
20:50	32.7	32.7	32.7	91	30.4	0	0	---	0.00	30.058 
20:55	32.8	32.8	32.8	91	30.5	0	0	---	0.00	30.058 
21:00	32.8	32.8	32.8	91	30.5	0	0	---	0.00	30.030 
21:05	32.8	32.8	32.8	91	30.5	0	0	---	0.00	30.030 
21:10	32.8	32.8	32.8	91	30.5	0	0	---	0.00	30.030 
21:15	32.8	32.8	32.8	92	30.7	0	0	---	0.00	30.014 
21:20	32.8	32.8	32.8	92	30.7	0	0	---	0.00	30.014 
21:25	32.8	32.8	32.8	92	30.7	0	0	---	0.00	30.014 
21:30	32.8	32.8	32.8	92	30.7	0	0	---	0.00	29.996 
21:35	32.8	32.8	32.8	92	30.7	0	0	---	0.00	29.996 
21:40	32.8	32.8	32.8	92	30.7	0	0	---	0.00	29.996 
21:45	32.8	32.8	32.8	92	30.7	0	0	---	0.00	29.989 
21:50	32.8	32.8	32.8	92	30.7	0	0	---	0.00	29.989 
21:55	32.9	32.9	32.9	92	30.8	0	0	---	0.00	29.989 
22:00	32.9	32.9	32.9	92	30.8	0	0	---	0.00	29.986 
22:05	32.9	32.9	32.9	92	30.8	0	0	---	0.00	29.986 
22:10	32.9	32.9	32.9	92	30.8	0	0	---	0.00	29.986 
22:15	32.9	32.9	32.9	92	30.8	0	0	---	0.00	29.978 
22:20	32.9	32.9	32.9	92	30.8	0	0	---	0.00	29.978 
22:25	32.9	32.9	32.9	92	30.8	0	0	---	0.00	29.978 
22:30	33.1	33.1	33.1	92	31.0	0	0	---	0.00	29.961 
22:35	33.1	33.1	33.1	92	31.0	0	0	---	0.00	29.961 
22:40	33.1	33.1	33.1	92	31.0	0	0	---	0.00	29.961 
22:45	33.1	33.1	33.1	92	31.0	0	0	---	0.00	29.946 
22:50	33.1	33.1	33.1	92	31.0	0	0	---	0.00	29.946 
22:55	33.1	33.1	33.1	93	31.3	0	0	---	0.00	29.946 
23:00	33.2	33.2	33.2	93	31.4	0	0	---	0.00	29.957 
23:05	33.2	33.2	33.2	93	31.4	0	0	---	0.00	29.957 
23:10	33.2	33.2	33.2	93	31.4	0	0	---	0.00	29.957 
23:15	33.2	33.2	33.2	93	31.4	0	0	---	0.01	29.941 
23:20	33.4	33.4	33.4	93	31.6	0	0	---	0.00	29.941 
23:25	33.4	33.4	33.4	93	31.6	0	0	---	0.00	29.941 
23:30	33.4	28.7	33.4	93	31.6	5	10	90	0.01	29.900 
23:35	33.4	29.7	33.4	93	31.6	4	10	112	0.00	29.900 
23:40	33.4	33.4	33.4	93	31.6	3	10	112	0.00	29.900 
23:45	33.4	33.4	33.4	93	31.6	2	6	90	0.00	29.927 
23:50	33.5	33.5	33.5	93	31.7	0	2	112	0.00	29.927 
23:55	33.5	33.5	33.5	93	31.7	2	4	90	0.01	29.927 

CoCoRaHS
IN-AL-39
A2 Web Hosting
Creative Commons License
GoDaddy
search engine by freefind advanced

loaded 2018-11-17 05:59:51 • last modified 2010-11-18 10:43:29
Privacy PolicyDisclaimer
• wx.awcolley.com is powered by PmWiki v.2002016 •
• all content (unless otherwise noted) © 2018 A W Colley